createdAt,value
2018-12-19T00:00:13.557Z,100307.02
2018-12-19T00:00:44.655Z,100309.56
2018-12-19T00:01:15.799Z,100310.02
2018-12-19T00:01:46.916Z,100311.76
2018-12-19T00:02:18.033Z,100306.66
2018-12-19T00:02:49.132Z,100303.28
2018-12-19T00:03:20.237Z,100307.22
2018-12-19T00:03:51.391Z,100304.67
2018-12-19T00:04:22.553Z,100306.08
2018-12-19T00:04:53.784Z,100308.56
2018-12-19T00:05:24.883Z,100304.26
2018-12-19T00:05:55.987Z,100299.08
2018-12-19T00:06:27.087Z,100303.38
2018-12-19T00:06:58.188Z,100304.22
2018-12-19T00:07:29.301Z,100305.48
2018-12-19T00:08:00.412Z,100307.62
2018-12-19T00:08:31.503Z,100302.50
2018-12-19T00:09:03.308Z,100308.63
2018-12-19T00:09:34.774Z,100303.55
2018-12-19T00:10:05.891Z,100307.00
2018-12-19T00:10:36.998Z,100302.22
2018-12-19T00:11:08.105Z,100307.73
2018-12-19T00:11:39.204Z,100313.31
2018-12-19T00:12:10.305Z,100313.78
2018-12-19T00:12:41.404Z,100307.00
2018-12-19T00:13:12.509Z,100307.93
2018-12-19T00:13:43.649Z,100306.64
2018-12-19T00:14:14.744Z,100310.06
2018-12-19T00:14:45.840Z,100307.95
2018-12-19T00:15:16.947Z,100309.28
2018-12-19T00:15:48.052Z,100311.92
2018-12-19T00:16:19.202Z,100304.58
2018-12-19T00:16:50.351Z,100308.88
2018-12-19T00:17:21.488Z,100312.78
2018-12-19T00:17:52.599Z,100306.83
2018-12-19T00:18:23.708Z,100306.38
2018-12-19T00:18:54.817Z,100311.97
2018-12-19T00:19:25.921Z,100309.36
2018-12-19T00:19:57.024Z,100305.86
2018-12-19T00:20:28.135Z,100308.20
2018-12-19T00:20:59.251Z,100314.73
2018-12-19T00:21:30.365Z,100310.06
2018-12-19T00:22:01.462Z,100313.34
2018-12-19T00:22:32.607Z,100310.78
2018-12-19T00:23:03.716Z,100314.18
2018-12-19T00:23:34.840Z,100313.27
2018-12-19T00:24:05.940Z,100310.98
2018-12-19T00:24:37.057Z,100311.81
2018-12-19T00:25:08.168Z,100310.55
2018-12-19T00:25:39.279Z,100314.14
2018-12-19T00:26:10.387Z,100307.77
2018-12-19T00:26:41.492Z,100315.11
2018-12-19T00:27:12.608Z,100310.88
2018-12-19T00:27:44.437Z,100307.44
2018-12-19T00:28:15.553Z,100312.22
2018-12-19T00:28:46.657Z,100305.84
2018-12-19T00:29:17.770Z,100309.36
2018-12-19T00:29:48.876Z,100311.56
2018-12-19T00:30:19.986Z,100305.18
2018-12-19T00:30:51.108Z,100306.84
2018-12-19T00:31:22.208Z,100311.14
2018-12-19T00:31:53.323Z,100311.61
2018-12-19T00:32:24.430Z,100308.20
2018-12-19T00:32:55.574Z,100307.41
2018-12-19T00:33:26.725Z,100308.77
2018-12-19T00:33:57.824Z,100309.59
2018-12-19T00:34:28.929Z,100314.29
2018-12-19T00:35:00.043Z,100308.29
2018-12-19T00:35:31.161Z,100313.91
2018-12-19T00:36:02.283Z,100314.74
2018-12-19T00:36:33.396Z,100307.86
2018-12-19T00:37:04.520Z,100309.59
2018-12-19T00:37:35.687Z,100312.55
2018-12-19T00:38:06.811Z,100318.47
2018-12-19T00:38:37.966Z,100313.72
2018-12-19T00:39:09.663Z,100311.16
2018-12-19T00:39:41.105Z,100310.32
2018-12-19T00:40:12.208Z,100308.33
2018-12-19T00:40:43.314Z,100314.02
2018-12-19T00:41:14.422Z,100313.94
2018-12-19T00:41:45.520Z,100309.61
2018-12-19T00:42:16.629Z,100308.77
2018-12-19T00:42:47.741Z,100306.14
2018-12-19T00:43:18.854Z,100313.38
2018-12-19T00:43:50.005Z,100309.52
2018-12-19T00:44:22.453Z,100311.27
2018-12-19T00:44:53.737Z,100306.58
2018-12-19T00:45:24.862Z,100310.91
2018-12-19T00:45:55.968Z,100311.78
2018-12-19T00:46:27.063Z,100310.05
2018-12-19T00:46:58.169Z,100307.41
2018-12-19T00:47:29.404Z,100313.84
2018-12-19T00:48:00.520Z,100314.29
2018-12-19T00:48:31.656Z,100308.77
2018-12-19T00:49:02.753Z,100317.71
2018-12-19T00:49:33.879Z,100311.25
2018-12-19T00:50:05.033Z,100315.10
2018-12-19T00:50:36.137Z,100319.45
2018-12-19T00:51:07.245Z,100309.69
2018-12-19T00:51:38.356Z,100311.55
2018-12-19T00:52:09.578Z,100314.16
2018-12-19T00:52:40.704Z,100308.66
2018-12-19T00:53:11.913Z,100315.16
2018-12-19T00:53:43.021Z,100309.09
2018-12-19T00:54:14.160Z,100315.05
2018-12-19T00:54:45.274Z,100315.45
2018-12-19T00:55:16.416Z,100304.70
2018-12-19T00:55:47.541Z,100310.21
2018-12-19T00:56:18.680Z,100316.98
2018-12-19T00:56:49.783Z,100313.56
2018-12-19T00:57:20.933Z,100308.92
2018-12-19T00:57:52.041Z,100308.09
2018-12-19T00:58:23.153Z,100306.31
2018-12-19T00:58:54.271Z,100311.44
2018-12-19T00:59:25.380Z,100308.00
2018-12-19T00:59:56.489Z,100310.64
2018-12-19T01:00:27.597Z,100307.16
2018-12-19T01:00:58.737Z,100310.53
2018-12-19T01:01:29.845Z,100312.15
2018-12-19T01:02:00.960Z,100312.55
2018-12-19T01:02:32.146Z,100312.89
2018-12-19T01:03:03.248Z,100309.76
2018-12-19T01:03:34.347Z,100316.64
2018-12-19T01:04:05.451Z,100314.14
2018-12-19T01:04:36.579Z,100311.16
2018-12-19T01:05:07.703Z,100312.06
2018-12-19T01:05:38.936Z,100317.20
2018-12-19T01:06:10.046Z,100312.96
2018-12-19T01:06:41.162Z,100311.23
2018-12-19T01:07:12.265Z,100306.84
2018-12-19T01:07:43.400Z,100313.25
2018-12-19T01:08:14.506Z,100307.73
2018-12-19T01:08:45.625Z,100309.51
2018-12-19T01:09:16.769Z,100310.39
2018-12-19T01:09:47.890Z,100303.55
2018-12-19T01:10:18.992Z,100310.91
2018-12-19T01:10:50.135Z,100304.48
2018-12-19T01:11:21.248Z,100307.83
2018-12-19T01:11:52.362Z,100303.06
2018-12-19T01:12:23.467Z,100309.48
2018-12-19T01:12:54.599Z,100304.73
2018-12-19T01:13:25.716Z,100307.75
2018-12-19T01:13:56.833Z,100312.91
2018-12-19T01:14:27.985Z,100307.75
2018-12-19T01:14:59.097Z,100308.64
2018-12-19T01:15:30.212Z,100308.66
2018-12-19T01:16:01.313Z,100309.11
2018-12-19T01:16:32.432Z,100306.06
2018-12-19T01:17:03.585Z,100307.35
2018-12-19T01:17:34.693Z,100305.66
2018-12-19T01:18:05.802Z,100304.36
2018-12-19T01:18:36.953Z,100305.66
2018-12-19T01:19:08.061Z,100307.00
2018-12-19T01:19:39.213Z,100307.02
2018-12-19T01:20:10.331Z,100300.14
2018-12-19T01:20:41.449Z,100304.07
2018-12-19T01:21:12.609Z,100307.48
2018-12-19T01:21:43.750Z,100304.07
2018-12-19T01:22:14.862Z,100301.43
2018-12-19T01:22:45.968Z,100302.24
2018-12-19T01:23:17.076Z,100303.97
2018-12-19T01:23:48.202Z,100301.32
2018-12-19T01:24:19.341Z,100303.89
2018-12-19T01:24:50.443Z,100300.94
2018-12-19T01:25:21.612Z,100296.62
2018-12-19T01:25:52.776Z,100299.20
2018-12-19T01:26:23.937Z,100299.58
2018-12-19T01:26:55.117Z,100299.63
2018-12-19T01:27:26.244Z,100299.19
2018-12-19T01:27:57.352Z,100295.34
2018-12-19T01:28:28.494Z,100300.00
2018-12-19T01:28:59.608Z,100299.11
2018-12-19T01:29:30.711Z,100296.52
2018-12-19T01:30:01.861Z,100299.55
2018-12-19T01:30:32.972Z,100302.11
2018-12-19T01:31:04.099Z,100303.40
2018-12-19T01:31:35.213Z,100307.23
2018-12-19T01:32:06.326Z,100303.33
2018-12-19T01:32:37.438Z,100308.00
2018-12-19T01:33:08.537Z,100306.73
2018-12-19T01:33:39.671Z,100306.42
2018-12-19T01:34:10.812Z,100301.66
2018-12-19T01:34:41.929Z,100305.50
2018-12-19T01:35:13.071Z,100299.53
2018-12-19T01:35:44.177Z,100301.21
2018-12-19T01:36:15.296Z,100305.95
2018-12-19T01:36:46.404Z,100305.54
2018-12-19T01:37:17.549Z,100302.52
2018-12-19T01:37:48.679Z,100297.83
2018-12-19T01:38:19.792Z,100301.32
2018-12-19T01:38:50.913Z,100303.06
2018-12-19T01:39:22.571Z,100301.81
2018-12-19T01:39:53.942Z,100301.39
2018-12-19T01:40:25.052Z,100294.85
2018-12-19T01:40:56.153Z,100301.19
2018-12-19T01:41:27.267Z,100298.19
2018-12-19T01:41:58.409Z,100294.69
2018-12-19T01:42:29.519Z,100303.33
2018-12-19T01:43:00.638Z,100300.00
2018-12-19T01:43:31.735Z,100299.55
2018-12-19T01:44:02.844Z,100296.43
2018-12-19T01:44:33.962Z,100301.17
2018-12-19T01:45:05.075Z,100308.92
2018-12-19T01:45:36.175Z,100299.55
2018-12-19T01:46:07.298Z,100299.09
2018-12-19T01:46:38.415Z,100300.36
2018-12-19T01:47:09.573Z,100301.66
2018-12-19T01:47:40.692Z,100301.21
2018-12-19T01:48:11.804Z,100300.72
2018-12-19T01:48:42.926Z,100303.27
2018-12-19T01:49:14.040Z,100310.59
2018-12-19T01:49:45.154Z,100297.73
2018-12-19T01:50:16.287Z,100304.66
2018-12-19T01:50:47.409Z,100300.41
2018-12-19T01:51:18.505Z,100300.95
2018-12-19T01:51:49.612Z,100297.95
2018-12-19T01:52:20.756Z,100306.58
2018-12-19T01:52:51.857Z,100296.66
2018-12-19T01:53:22.969Z,100303.06
2018-12-19T01:53:54.072Z,100300.92
2018-12-19T01:54:25.185Z,100302.59
2018-12-19T01:54:56.292Z,100295.69
2018-12-19T01:55:27.394Z,100300.28
2018-12-19T01:55:58.497Z,100303.77
2018-12-19T01:56:29.601Z,100301.64
2018-12-19T01:57:00.703Z,100303.40
2018-12-19T01:57:31.850Z,100302.95
2018-12-19T01:58:02.965Z,100302.16
2018-12-19T01:58:34.079Z,100300.47
2018-12-19T01:59:05.195Z,100300.00
2018-12-19T01:59:36.304Z,100293.97
2018-12-19T02:00:07.401Z,100299.92
2018-12-19T02:00:38.508Z,100301.66
2018-12-19T02:01:09.625Z,100302.16
2018-12-19T02:01:40.773Z,100298.75
2018-12-19T02:02:11.887Z,100296.17
2018-12-19T02:02:43.005Z,100300.94
2018-12-19T02:03:14.149Z,100300.11
2018-12-19T02:03:45.272Z,100299.20
2018-12-19T02:04:16.395Z,100295.23
2018-12-19T02:04:47.495Z,100296.91
2018-12-19T02:05:18.621Z,100303.33
2018-12-19T02:05:49.721Z,100292.19
2018-12-19T02:06:20.826Z,100297.42
2018-12-19T02:06:51.929Z,100300.00
2018-12-19T02:07:23.040Z,100290.11
2018-12-19T02:07:54.193Z,100291.37
2018-12-19T02:08:25.302Z,100293.97
2018-12-19T02:08:56.404Z,100292.20
2018-12-19T02:09:29.087Z,100291.76
2018-12-19T02:10:00.358Z,100293.45
2018-12-19T02:10:31.468Z,100297.24
2018-12-19T02:11:02.577Z,100289.53
2018-12-19T02:11:33.697Z,100290.81
2018-12-19T02:12:04.893Z,100287.42
2018-12-19T02:12:36.006Z,100290.89
2018-12-19T02:13:07.112Z,100293.12
2018-12-19T02:13:38.225Z,100292.28
2018-12-19T02:14:09.328Z,100289.71
2018-12-19T02:14:40.482Z,100283.31
2018-12-19T02:15:11.665Z,100288.46
2018-12-19T02:15:42.773Z,100293.98
2018-12-19T02:16:13.894Z,100290.92
2018-12-19T02:16:45.056Z,100297.38
2018-12-19T02:17:16.276Z,100293.13
2018-12-19T02:17:47.401Z,100289.71
2018-12-19T02:18:18.520Z,100287.95
2018-12-19T02:18:49.625Z,100292.20
2018-12-19T02:19:20.724Z,100289.26
2018-12-19T02:19:51.835Z,100290.58
2018-12-19T02:20:22.959Z,100289.26
2018-12-19T02:20:54.098Z,100291.37
2018-12-19T02:21:25.216Z,100290.02
2018-12-19T02:21:56.360Z,100286.61
2018-12-19T02:22:27.459Z,100287.90
2018-12-19T02:22:58.558Z,100286.58
2018-12-19T02:23:29.667Z,100290.89
2018-12-19T02:24:00.803Z,100288.73
2018-12-19T02:24:31.915Z,100289.19
2018-12-19T02:25:03.036Z,100286.11
2018-12-19T02:25:34.152Z,100290.36
2018-12-19T02:26:05.273Z,100288.70
2018-12-19T02:26:36.375Z,100291.28
2018-12-19T02:27:07.495Z,100284.87
2018-12-19T02:27:38.594Z,100286.98
2018-12-19T02:28:09.737Z,100289.03
2018-12-19T02:28:40.840Z,100293.30
2018-12-19T02:29:12.071Z,100286.94
2018-12-19T02:29:43.216Z,100289.49
2018-12-19T02:30:14.329Z,100283.52
2018-12-19T02:30:45.436Z,100286.47
2018-12-19T02:31:16.539Z,100284.75
2018-12-19T02:31:47.648Z,100283.06
2018-12-19T02:32:18.761Z,100286.50
2018-12-19T02:32:49.872Z,100284.37
2018-12-19T02:33:20.991Z,100286.48
2018-12-19T02:33:52.115Z,100288.66
2018-12-19T02:34:23.209Z,100287.79
2018-12-19T02:34:54.353Z,100285.22
2018-12-19T02:35:25.458Z,100281.07
2018-12-19T02:35:56.568Z,100276.87
2018-12-19T02:36:27.690Z,100277.34
2018-12-19T02:36:58.827Z,100280.66
2018-12-19T02:37:29.934Z,100280.60
2018-12-19T02:38:01.178Z,100279.31
2018-12-19T02:38:32.280Z,100278.86
2018-12-19T02:39:03.391Z,100275.73
2018-12-19T02:39:36.333Z,100284.71
2018-12-19T02:40:07.653Z,100280.42
2018-12-19T02:40:39.719Z,100283.01
2018-12-19T02:41:10.855Z,100279.55
2018-12-19T02:41:41.971Z,100285.07
2018-12-19T02:42:13.092Z,100283.78
2018-12-19T02:42:44.221Z,100287.67
2018-12-19T02:43:15.376Z,100285.98
2018-12-19T02:43:46.481Z,100287.28
2018-12-19T02:44:17.596Z,100281.25
2018-12-19T02:44:48.717Z,100290.70
2018-12-19T02:45:19.828Z,100286.36
2018-12-19T02:45:50.980Z,100285.90
2018-12-19T02:46:22.134Z,100287.56
2018-12-19T02:46:53.237Z,100285.39
2018-12-19T02:47:24.340Z,100287.98
2018-12-19T02:47:55.446Z,100289.30
2018-12-19T02:48:26.566Z,100290.12
2018-12-19T02:48:57.667Z,100293.52
2018-12-19T02:49:28.780Z,100285.81
2018-12-19T02:49:59.890Z,100291.86
2018-12-19T02:50:31.006Z,100290.21
2018-12-19T02:51:02.102Z,100288.85
2018-12-19T02:51:33.266Z,100291.41
2018-12-19T02:52:04.375Z,100295.73
2018-12-19T02:52:35.482Z,100294.45
2018-12-19T02:53:06.621Z,100295.69
2018-12-19T02:53:37.723Z,100287.52
2018-12-19T02:54:08.842Z,100292.21
2018-12-19T02:54:39.980Z,100294.78
2018-12-19T02:55:11.092Z,100290.08
2018-12-19T02:55:42.416Z,100293.50
2018-12-19T02:56:13.532Z,100291.00
2018-12-19T02:56:45.366Z,100290.14
2018-12-19T02:57:16.478Z,100289.19
2018-12-19T02:57:47.682Z,100294.39
2018-12-19T02:58:18.798Z,100287.08
2018-12-19T02:58:49.916Z,100292.67
2018-12-19T02:59:21.144Z,100296.07
2018-12-19T02:59:52.316Z,100295.59
2018-12-19T03:00:23.457Z,100295.62
2018-12-19T03:00:54.570Z,100289.66
2018-12-19T03:01:25.695Z,100293.58
2018-12-19T03:01:56.828Z,100300.05
2018-12-19T03:02:27.952Z,100297.45
2018-12-19T03:02:59.111Z,100294.45
2018-12-19T03:03:30.325Z,100299.20
2018-12-19T03:04:01.453Z,100302.27
2018-12-19T03:04:33.343Z,100301.91
2018-12-19T03:05:04.513Z,100301.09
2018-12-19T03:05:35.667Z,100294.29
2018-12-19T03:06:06.783Z,100296.86
2018-12-19T03:06:37.886Z,100302.41
2018-12-19T03:07:09.099Z,100299.80
2018-12-19T03:07:40.229Z,100301.44
2018-12-19T03:08:11.354Z,100304.09
2018-12-19T03:08:42.470Z,100295.95
2018-12-19T03:09:13.644Z,100296.38
2018-12-19T03:09:44.819Z,100299.81
2018-12-19T03:10:15.940Z,100293.84
2018-12-19T03:10:47.079Z,100298.96
2018-12-19T03:11:18.218Z,100297.22
2018-12-19T03:11:49.344Z,100295.48
2018-12-19T03:12:20.460Z,100298.05
2018-12-19T03:12:51.563Z,100298.08
2018-12-19T03:13:22.671Z,100298.96
2018-12-19T03:13:53.833Z,100302.82
2018-12-19T03:14:25.008Z,100302.38
2018-12-19T03:14:56.171Z,100298.55
2018-12-19T03:15:27.301Z,100301.08
2018-12-19T03:15:58.425Z,100299.80
2018-12-19T03:16:29.544Z,100299.81
2018-12-19T03:17:00.695Z,100300.72
2018-12-19T03:17:31.800Z,100303.33
2018-12-19T03:18:03.794Z,100299.92
2018-12-19T03:18:34.924Z,100302.95
2018-12-19T03:19:06.075Z,100299.09
2018-12-19T03:19:37.199Z,100301.21
2018-12-19T03:20:08.361Z,100305.97
2018-12-19T03:20:39.471Z,100307.19
2018-12-19T03:21:10.637Z,100303.67
2018-12-19T03:21:41.748Z,100302.00
2018-12-19T03:22:12.865Z,100300.27
2018-12-19T03:22:43.967Z,100307.53
2018-12-19T03:23:15.065Z,100304.47
2018-12-19T03:23:46.206Z,100302.30
2018-12-19T03:24:17.341Z,100304.50
2018-12-19T03:24:48.448Z,100306.24
2018-12-19T03:25:20.098Z,100300.70
2018-12-19T03:25:51.253Z,100294.29
2018-12-19T03:26:22.444Z,100306.24
2018-12-19T03:26:53.675Z,100306.24
2018-12-19T03:27:24.818Z,100304.50
2018-12-19T03:27:55.941Z,100301.12
2018-12-19T03:28:27.117Z,100307.53
2018-12-19T03:28:58.301Z,100306.66
2018-12-19T03:29:29.480Z,100303.20
2018-12-19T03:30:01.593Z,100304.47
2018-12-19T03:30:32.772Z,100310.08
2018-12-19T03:31:03.990Z,100304.13
2018-12-19T03:31:35.221Z,100307.63
2018-12-19T03:32:06.481Z,100311.52
2018-12-19T03:32:37.672Z,100297.78
2018-12-19T03:33:08.848Z,100302.50
2018-12-19T03:33:40.010Z,100296.06
2018-12-19T03:34:11.101Z,100302.05
2018-12-19T03:34:42.259Z,100307.23
2018-12-19T03:35:13.400Z,100302.48
2018-12-19T03:35:44.609Z,100306.34
2018-12-19T03:36:16.564Z,100309.76
2018-12-19T03:36:48.713Z,100304.56
2018-12-19T03:37:19.943Z,100309.72
2018-12-19T03:37:51.101Z,100307.16
2018-12-19T03:38:22.212Z,100310.17
2018-12-19T03:38:53.497Z,99775.23
2018-12-19T03:39:24.617Z,100307.15
2018-12-19T03:39:55.734Z,100309.23
2018-12-19T03:40:26.925Z,100310.93
2018-12-19T03:40:58.045Z,100311.86
2018-12-19T03:41:29.224Z,100308.43
2018-12-19T03:42:00.337Z,100311.84
2018-12-19T03:42:31.465Z,100310.93
2018-12-19T03:43:02.625Z,100311.80
2018-12-19T03:43:33.803Z,100316.08
2018-12-19T03:44:04.960Z,100318.16
2018-12-19T03:44:36.094Z,100313.46
2018-12-19T03:45:07.214Z,100313.46
2018-12-19T03:45:39.401Z,100312.22
2018-12-19T03:46:10.531Z,100311.00
2018-12-19T03:46:41.645Z,100315.27
2018-12-19T03:47:12.810Z,100312.22
2018-12-19T03:47:43.941Z,100315.24
2018-12-19T03:48:15.046Z,100312.22
2018-12-19T03:48:46.197Z,100316.08
2018-12-19T03:49:17.305Z,100314.31
2018-12-19T03:49:48.443Z,100316.41
2018-12-19T03:50:19.562Z,100311.25
2018-12-19T03:50:50.764Z,100305.27
2018-12-19T03:51:21.963Z,100310.42
2018-12-19T03:51:53.063Z,100314.25
2018-12-19T03:52:24.234Z,100312.97
2018-12-19T03:52:55.370Z,100309.11
2018-12-19T03:53:26.489Z,100311.20
2018-12-19T03:53:57.595Z,100317.70
2018-12-19T03:54:28.813Z,100310.44
2018-12-19T03:55:00.047Z,100315.54
2018-12-19T03:55:31.165Z,100309.95
2018-12-19T03:56:02.272Z,100313.27
2018-12-19T03:56:34.225Z,100313.33
2018-12-19T03:57:05.369Z,100313.34
2018-12-19T03:57:36.523Z,100318.37
2018-12-19T03:58:07.709Z,100317.02
2018-12-19T03:58:38.859Z,100319.58
2018-12-19T03:59:09.975Z,100318.75
2018-12-19T03:59:41.295Z,100320.09
2018-12-19T04:00:12.740Z,100322.23
2018-12-19T04:00:43.857Z,100322.61
2018-12-19T04:01:15.009Z,100323.44
2018-12-19T04:01:46.123Z,100320.87
2018-12-19T04:02:17.286Z,100322.59
2018-12-19T04:02:48.417Z,100321.73
2018-12-19T04:03:19.550Z,100316.54
2018-12-19T04:03:50.702Z,100325.59
2018-12-19T04:04:21.824Z,100321.28
2018-12-19T04:04:52.980Z,100317.77
2018-12-19T04:05:24.097Z,100320.27
2018-12-19T04:05:55.237Z,100327.56
2018-12-19T04:06:26.360Z,100323.66
2018-12-19T04:06:57.483Z,100324.11
2018-12-19T04:07:28.620Z,100321.97
2018-12-19T04:07:59.735Z,100327.97
2018-12-19T04:08:30.899Z,100322.45
2018-12-19T04:09:02.052Z,100324.06
2018-12-19T04:09:33.178Z,100326.22
2018-12-19T04:10:04.321Z,100330.13
2018-12-19T04:10:35.433Z,100327.63
2018-12-19T04:11:06.546Z,100330.20
2018-12-19T04:11:37.681Z,100329.70
2018-12-19T04:12:08.828Z,100336.25
2018-12-19T04:12:39.997Z,100332.39
2018-12-19T04:13:11.100Z,100330.66
2018-12-19T04:13:42.200Z,100330.61
2018-12-19T04:14:13.392Z,100327.59
2018-12-19T04:14:44.569Z,100330.17
2018-12-19T04:15:15.760Z,100331.84
2018-12-19T04:15:46.912Z,100330.53
2018-12-19T04:16:18.053Z,100330.97
2018-12-19T04:16:49.261Z,100336.50
2018-12-19T04:17:20.458Z,100339.48
2018-12-19T04:17:51.589Z,100342.08
2018-12-19T04:18:22.766Z,100341.64
2018-12-19T04:18:53.885Z,100341.64
2018-12-19T04:19:25.025Z,100345.14
2018-12-19T04:19:56.187Z,100341.72
2018-12-19T04:20:27.312Z,100334.41
2018-12-19T04:20:58.511Z,100343.91
2018-12-19T04:21:29.616Z,100346.16
2018-12-19T04:22:00.819Z,100347.84
2018-12-19T04:22:33.195Z,100349.10
2018-12-19T04:23:04.441Z,100340.45
2018-12-19T04:23:35.599Z,100347.31
2018-12-19T04:24:06.778Z,100352.45
2018-12-19T04:24:37.942Z,100348.17
2018-12-19T04:25:09.124Z,100348.64
2018-12-19T04:25:40.268Z,100344.39
2018-12-19T04:26:11.430Z,100352.13
2018-12-19T04:26:42.615Z,100345.70
2018-12-19T04:27:13.780Z,100343.13
2018-12-19T04:27:44.948Z,100340.12
2018-12-19T04:28:16.176Z,100347.38
2018-12-19T04:28:47.377Z,100342.63
2018-12-19T04:29:18.832Z,100346.38
2018-12-19T04:29:50.020Z,100348.60
2018-12-19T04:30:21.237Z,100342.17
2018-12-19T04:30:52.624Z,100342.63
2018-12-19T04:31:23.831Z,100346.48
2018-12-19T04:31:55.702Z,100347.81
2018-12-19T04:32:26.837Z,100343.25
2018-12-19T04:32:58.835Z,100348.51
2018-12-19T04:33:30.000Z,100348.98
2018-12-19T04:34:01.189Z,100342.95
2018-12-19T04:34:32.382Z,100353.20
2018-12-19T04:35:03.554Z,100352.72
2018-12-19T04:35:35.556Z,100352.25
2018-12-19T04:36:06.687Z,100362.86
2018-12-19T04:36:37.977Z,100360.67
2018-12-19T04:37:09.092Z,100357.64
2018-12-19T04:37:40.277Z,100357.19
2018-12-19T04:38:12.152Z,100358.92
2018-12-19T04:38:44.088Z,100361.58
2018-12-19T04:39:15.244Z,100366.84
2018-12-19T04:39:46.393Z,100360.44
2018-12-19T04:40:17.538Z,100360.06
2018-12-19T04:40:48.654Z,100358.81
2018-12-19T04:41:19.765Z,100363.05
2018-12-19T04:41:50.960Z,100361.36
2018-12-19T04:42:22.075Z,100357.09
2018-12-19T04:42:53.244Z,100362.23
2018-12-19T04:43:24.751Z,100361.36
2018-12-19T04:43:55.893Z,100366.86
2018-12-19T04:44:27.038Z,100364.19
2018-12-19T04:44:58.160Z,100365.93
2018-12-19T04:45:29.315Z,100361.24
2018-12-19T04:46:00.429Z,100362.12
2018-12-19T04:46:31.551Z,100366.27
2018-12-19T04:47:02.733Z,100365.35
2018-12-19T04:47:33.865Z,100361.91
2018-12-19T04:48:04.988Z,100368.86
2018-12-19T04:48:36.118Z,100363.28
2018-12-19T04:49:07.268Z,100365.48
2018-12-19T04:49:38.393Z,100364.62
2018-12-19T04:50:09.513Z,100368.40
2018-12-19T04:50:40.631Z,100366.73
2018-12-19T04:51:11.745Z,100364.98
2018-12-19T04:51:42.907Z,100369.28
2018-12-19T04:52:14.059Z,100366.73
2018-12-19T04:52:45.184Z,100370.59
2018-12-19T04:53:16.322Z,100369.28
2018-12-19T04:53:47.462Z,100368.40
2018-12-19T04:54:18.609Z,100360.91
2018-12-19T04:54:49.724Z,100370.48
2018-12-19T04:55:20.902Z,100367.84
2018-12-19T04:55:52.017Z,100366.53
2018-12-19T04:56:23.213Z,100370.84
2018-12-19T04:56:54.369Z,100364.41
2018-12-19T04:57:25.521Z,100370.88
2018-12-19T04:57:56.677Z,100366.19
2018-12-19T04:58:27.852Z,100372.14
2018-12-19T04:58:59.005Z,100369.59
2018-12-19T04:59:30.125Z,100367.62
2018-12-19T05:00:01.311Z,100367.36
2018-12-19T05:00:32.458Z,100374.23
2018-12-19T05:01:03.838Z,100363.81
2018-12-19T05:01:34.961Z,100368.39
2018-12-19T05:02:06.092Z,100369.09
2018-12-19T05:02:37.303Z,100372.52
2018-12-19T05:03:08.436Z,100367.84
2018-12-19T05:03:39.647Z,100374.86
2018-12-19T05:04:10.818Z,100372.77
2018-12-19T05:04:41.947Z,100377.53
2018-12-19T05:05:13.061Z,100372.83
2018-12-19T05:05:44.207Z,100370.19
2018-12-19T05:06:15.361Z,100377.91
2018-12-19T05:06:46.485Z,100379.30
2018-12-19T05:07:17.646Z,100385.81
2018-12-19T05:07:49.321Z,100377.42
2018-12-19T05:08:20.476Z,100383.84
2018-12-19T05:08:51.603Z,100383.73
2018-12-19T05:09:22.742Z,100377.30
2018-12-19T05:09:53.856Z,100378.72
2018-12-19T05:10:24.998Z,100380.95
2018-12-19T05:10:56.118Z,100377.91
2018-12-19T05:11:27.233Z,100380.45
2018-12-19T05:11:58.385Z,100375.92
2018-12-19T05:12:29.556Z,100378.55
2018-12-19T05:13:01.418Z,100380.58
2018-12-19T05:13:32.698Z,100374.95
2018-12-19T05:14:03.820Z,100381.86
2018-12-19T05:14:34.979Z,100377.09
2018-12-19T05:15:06.084Z,100376.67
2018-12-19T05:15:37.229Z,100378.86
2018-12-19T05:16:08.406Z,100381.31
2018-12-19T05:16:39.598Z,100380.89
2018-12-19T05:17:10.730Z,100375.80
2018-12-19T05:17:41.840Z,100385.34
2018-12-19T05:18:12.962Z,100384.92
2018-12-19T05:18:44.081Z,100381.94
2018-12-19T05:19:15.204Z,100383.28
2018-12-19T05:19:46.358Z,100384.67
2018-12-19T05:20:17.505Z,100377.06
2018-12-19T05:20:48.648Z,100389.59
2018-12-19T05:21:19.819Z,100390.42
2018-12-19T05:21:50.981Z,100389.44
2018-12-19T05:22:22.134Z,100384.53
2018-12-19T05:22:53.261Z,100391.41
2018-12-19T05:23:24.479Z,100391.45
2018-12-19T05:23:55.608Z,100387.58
2018-12-19T05:24:26.753Z,100390.55
2018-12-19T05:24:57.924Z,100385.36
2018-12-19T05:25:29.074Z,100388.77
2018-12-19T05:26:00.229Z,100391.41
2018-12-19T05:26:31.389Z,100392.76
2018-12-19T05:27:02.510Z,100390.62
2018-12-19T05:27:33.701Z,100395.69
2018-12-19T05:28:04.872Z,100397.84
2018-12-19T05:28:35.994Z,100399.13
2018-12-19T05:29:07.229Z,100393.91
2018-12-19T05:29:38.354Z,100402.41
2018-12-19T05:30:09.470Z,100405.75
2018-12-19T05:30:40.586Z,100400.95
2018-12-19T05:31:11.703Z,100400.55
2018-12-19T05:31:42.863Z,100402.31
2018-12-19T05:32:14.014Z,100404.47
2018-12-19T05:32:45.210Z,100400.59
2018-12-19T05:33:16.446Z,100404.09
2018-12-19T05:33:47.556Z,100403.83
2018-12-19T05:34:18.676Z,100406.73
2018-12-19T05:34:49.847Z,100403.81
2018-12-19T05:35:21.003Z,100404.20
2018-12-19T05:35:52.173Z,100402.45
2018-12-19T05:36:23.315Z,100403.23
2018-12-19T05:36:54.504Z,100339.55
2018-12-19T05:37:25.624Z,100409.61
2018-12-19T05:37:56.784Z,100404.41
2018-12-19T05:38:27.929Z,100409.58
2018-12-19T05:38:59.137Z,100411.77
2018-12-19T05:39:30.326Z,100411.31
2018-12-19T05:40:01.455Z,100413.91
2018-12-19T05:40:32.638Z,100414.34
2018-12-19T05:41:03.841Z,100416.34
2018-12-19T05:41:34.956Z,100410.26
2018-12-19T05:42:06.079Z,100412.28
2018-12-19T05:42:37.232Z,100420.02
2018-12-19T05:43:08.412Z,100413.17
2018-12-19T05:43:39.570Z,100412.73
2018-12-19T05:44:10.726Z,100411.02
2018-12-19T05:44:41.887Z,100418.73
2018-12-19T05:45:13.026Z,100418.31
2018-12-19T05:45:44.140Z,100416.97
2018-12-19T05:46:15.313Z,100414.76
2018-12-19T05:46:46.469Z,100416.02
2018-12-19T05:47:17.595Z,100424.22
2018-12-19T05:47:48.724Z,100419.59
2018-12-19T05:48:19.875Z,100423.36
2018-12-19T05:48:51.008Z,100427.95
2018-12-19T05:49:22.185Z,100419.41
2018-12-19T05:49:53.377Z,100426.34
2018-12-19T05:50:24.514Z,100424.77
2018-12-19T05:50:55.671Z,100421.76
2018-12-19T05:51:26.808Z,100419.91
2018-12-19T05:51:58.073Z,100421.24
2018-12-19T05:52:29.215Z,100426.39
2018-12-19T05:53:00.352Z,100421.19
2018-12-19T05:53:31.496Z,100424.20
2018-12-19T05:54:02.620Z,100422.91
2018-12-19T05:54:33.749Z,100423.77
2018-12-19T05:55:04.892Z,100426.78
2018-12-19T05:55:36.016Z,100423.87